createdAt,value
2017-07-29T00:00:03.133Z,59.10
2017-07-29T00:02:30.798Z,59.20
2017-07-29T00:04:58.475Z,59.20
2017-07-29T00:07:26.898Z,59.30
2017-07-29T00:09:54.615Z,59.20
2017-07-29T00:12:23.160Z,59.30
2017-07-29T00:14:50.924Z,59.20
2017-07-29T00:17:18.688Z,59.30
2017-07-29T00:19:46.367Z,59.30
2017-07-29T00:22:14.218Z,59.30
2017-07-29T00:24:41.853Z,59.30
2017-07-29T00:27:09.479Z,59.30
2017-07-29T00:29:37.934Z,59.30
2017-07-29T00:32:05.684Z,59.20
2017-07-29T00:34:33.549Z,59.30
2017-07-29T00:37:01.316Z,59.30
2017-07-29T00:39:29.079Z,59.30
2017-07-29T00:41:56.742Z,59.20
2017-07-29T00:44:24.424Z,59.30
2017-07-29T00:46:52.092Z,59.30
2017-07-29T00:49:19.932Z,59.40
2017-07-29T00:51:47.617Z,59.40
2017-07-29T00:54:15.461Z,59.30
2017-07-29T00:56:43.148Z,59.40
2017-07-29T00:59:10.887Z,59.40
2017-07-29T01:01:38.567Z,59.60
2017-07-29T01:04:06.310Z,59.60
2017-07-29T01:06:34.078Z,59.60
2017-07-29T01:09:01.736Z,59.60
2017-07-29T01:11:29.535Z,59.70
2017-07-29T01:13:57.266Z,59.60
2017-07-29T01:16:25.029Z,59.50
2017-07-29T01:18:52.710Z,59.60
2017-07-29T01:21:20.456Z,59.80
2017-07-29T01:23:48.222Z,59.80
2017-07-29T01:26:15.986Z,59.90
2017-07-29T01:28:43.751Z,59.80
2017-07-29T01:31:11.378Z,60.00
2017-07-29T01:33:39.045Z,59.90
2017-07-29T01:36:06.838Z,60.00
2017-07-29T01:38:34.515Z,60.00
2017-07-29T01:41:02.189Z,60.20
2017-07-29T01:43:29.926Z,60.30
2017-07-29T01:45:57.689Z,60.40
2017-07-29T01:48:25.377Z,60.50
2017-07-29T01:50:53.218Z,60.80
2017-07-29T01:53:20.877Z,60.80
2017-07-29T01:55:48.559Z,60.70
2017-07-29T01:58:16.408Z,60.90
2017-07-29T02:00:44.173Z,60.90
2017-07-29T02:03:11.938Z,60.90
2017-07-29T02:05:39.702Z,60.80
2017-07-29T02:08:07.370Z,60.80
2017-07-29T02:10:35.042Z,61.10
2017-07-29T02:13:02.788Z,60.90
2017-07-29T02:15:30.655Z,61.00
2017-07-29T02:17:58.284Z,61.00
2017-07-29T02:20:26.083Z,61.10
2017-07-29T02:22:53.949Z,61.30
2017-07-29T02:25:21.714Z,61.10
2017-07-29T02:27:49.343Z,62.00
2017-07-29T02:30:17.138Z,61.30
2017-07-29T02:32:44.904Z,61.40
2017-07-29T02:35:12.668Z,61.40
2017-07-29T02:37:40.534Z,61.40
2017-07-29T02:40:08.299Z,61.50
2017-07-29T02:42:35.994Z,61.40
2017-07-29T02:45:04.422Z,61.40
2017-07-29T02:47:32.123Z,61.70
2017-07-29T02:49:59.798Z,61.60
2017-07-29T02:52:27.529Z,61.80
2017-07-29T02:54:55.190Z,61.70
2017-07-29T02:57:22.875Z,61.60
2017-07-29T02:59:50.716Z,61.50
2017-07-29T03:02:18.408Z,61.80
2017-07-29T03:04:46.148Z,61.50
2017-07-29T03:07:13.935Z,61.70
2017-07-29T03:09:41.776Z,61.50
2017-07-29T03:12:09.542Z,62.00
2017-07-29T03:14:37.409Z,61.90
2017-07-29T03:17:05.088Z,61.90
2017-07-29T03:19:32.746Z,61.90
2017-07-29T03:22:00.595Z,62.00
2017-07-29T03:24:28.362Z,62.10
2017-07-29T03:26:56.124Z,62.10
2017-07-29T03:29:23.994Z,62.30
2017-07-29T03:31:51.755Z,62.20
2017-07-29T03:34:19.521Z,61.90
2017-07-29T03:36:47.386Z,62.30
2017-07-29T03:39:15.152Z,62.10
2017-07-29T03:41:43.024Z,62.30
2017-07-29T03:44:10.784Z,62.30
2017-07-29T03:46:38.419Z,62.20
2017-07-29T03:49:06.207Z,62.30
2017-07-29T03:51:33.972Z,62.30
2017-07-29T03:54:01.660Z,62.50
2017-07-29T03:56:29.324Z,62.60
2017-07-29T03:58:57.065Z,62.50
2017-07-29T04:01:24.691Z,62.40
2017-07-29T04:03:52.410Z,62.40
2017-07-29T04:06:20.151Z,62.40
2017-07-29T04:08:47.918Z,62.40
2017-07-29T04:11:15.783Z,62.50
2017-07-29T04:13:43.459Z,62.50
2017-07-29T04:16:11.209Z,62.20
2017-07-29T04:18:38.895Z,62.40
2017-07-29T04:21:06.633Z,62.30
2017-07-29T04:23:34.398Z,62.30
2017-07-29T04:26:02.265Z,62.60
2017-07-29T04:28:29.945Z,62.70
2017-07-29T04:30:57.696Z,62.70
2017-07-29T04:33:25.456Z,62.80
2017-07-29T04:35:53.219Z,63.00
2017-07-29T04:38:20.983Z,62.80
2017-07-29T04:40:48.747Z,62.90
2017-07-29T04:43:16.509Z,63.10
2017-07-29T04:45:44.273Z,63.10
2017-07-29T04:48:12.044Z,63.10
2017-07-29T04:50:39.806Z,63.20
2017-07-29T04:53:07.671Z,63.20
2017-07-29T04:55:35.312Z,63.20
2017-07-29T04:58:03.088Z,63.10
2017-07-29T05:00:30.860Z,63.10
2017-07-29T05:02:58.523Z,63.10
2017-07-29T05:05:26.286Z,63.10
2017-07-29T05:07:54.050Z,63.90
2017-07-29T05:10:21.813Z,63.30
2017-07-29T05:12:49.579Z,63.10
2017-07-29T05:15:17.341Z,63.30
2017-07-29T05:17:45.109Z,63.30
2017-07-29T05:20:12.874Z,63.30
2017-07-29T05:22:40.746Z,63.30
2017-07-29T05:25:08.424Z,63.20
2017-07-29T05:27:36.167Z,63.20
2017-07-29T05:30:03.930Z,63.30
2017-07-29T05:32:31.693Z,63.40
2017-07-29T05:34:59.314Z,63.80
2017-07-29T05:37:27.121Z,63.60
2017-07-29T05:39:54.785Z,63.80
2017-07-29T05:42:22.545Z,63.70
2017-07-29T05:44:50.309Z,63.40
2017-07-29T05:47:18.075Z,63.40
2017-07-29T05:49:45.838Z,63.70
2017-07-29T05:52:13.705Z,63.70
2017-07-29T05:54:41.366Z,63.60
2017-07-29T05:57:09.133Z,63.60
2017-07-29T05:59:36.916Z,63.80
2017-07-29T06:02:04.580Z,63.90
2017-07-29T06:04:32.242Z,63.80
2017-07-29T06:07:00.086Z,63.80
2017-07-29T06:09:27.783Z,64.10
2017-07-29T06:11:56.193Z,63.30
2017-07-29T06:14:23.993Z,64.10
2017-07-29T06:16:51.756Z,64.10
2017-07-29T06:19:19.522Z,64.10
2017-07-29T06:21:47.388Z,64.10
2017-07-29T06:24:15.150Z,64.10
2017-07-29T06:26:42.836Z,64.30
2017-07-29T06:29:10.681Z,64.20
2017-07-29T06:31:38.363Z,64.40
2017-07-29T06:34:06.107Z,64.40
2017-07-29T06:36:33.973Z,64.70
2017-07-29T06:39:01.746Z,64.80
2017-07-29T06:41:29.502Z,64.90
2017-07-29T06:43:57.266Z,65.00
2017-07-29T06:46:24.908Z,64.80
2017-07-29T06:48:52.695Z,64.90
2017-07-29T06:51:20.377Z,65.00
2017-07-29T06:53:49.144Z,65.00
2017-07-29T06:56:16.908Z,64.90
2017-07-29T06:58:44.774Z,65.10
2017-07-29T07:01:12.544Z,65.00
2017-07-29T07:03:40.307Z,65.10
2017-07-29T07:06:08.167Z,65.00
2017-07-29T07:08:35.931Z,65.20
2017-07-29T07:11:03.594Z,65.20
2017-07-29T07:13:31.469Z,65.50
2017-07-29T07:15:59.224Z,65.50
2017-07-29T07:18:26.987Z,65.80
2017-07-29T07:20:54.755Z,65.60
2017-07-29T07:23:22.634Z,65.90
2017-07-29T07:25:50.500Z,65.90
2017-07-29T07:28:18.353Z,65.90
2017-07-29T07:30:46.120Z,65.90
2017-07-29T07:33:13.899Z,66.30
2017-07-29T07:35:41.649Z,66.30
2017-07-29T07:38:09.332Z,66.50
2017-07-29T07:40:37.300Z,66.40
2017-07-29T07:43:04.934Z,66.40
2017-07-29T07:45:32.707Z,66.40
2017-07-29T07:48:00.571Z,66.60
2017-07-29T07:50:28.340Z,67.00
2017-07-29T07:52:55.996Z,66.90
2017-07-29T07:55:23.863Z,66.60
2017-07-29T07:57:51.547Z,66.70
2017-07-29T08:00:19.392Z,66.70
2017-07-29T08:02:47.259Z,66.70
2017-07-29T08:05:14.939Z,67.10
2017-07-29T08:07:42.687Z,66.80
2017-07-29T08:10:10.495Z,66.70
2017-07-29T08:12:39.033Z,67.40
2017-07-29T08:15:06.796Z,67.20
2017-07-29T08:17:34.474Z,67.30
2017-07-29T08:20:02.220Z,67.10
2017-07-29T08:22:29.882Z,67.20
2017-07-29T08:24:57.750Z,66.90
2017-07-29T08:27:25.415Z,67.10
2017-07-29T08:29:53.176Z,67.30
2017-07-29T08:32:21.047Z,67.20
2017-07-29T08:34:48.929Z,67.60
2017-07-29T08:37:16.676Z,67.40
2017-07-29T08:39:44.542Z,67.30
2017-07-29T08:42:12.313Z,67.30
2017-07-29T08:44:40.171Z,67.40
2017-07-29T08:47:07.935Z,67.60
2017-07-29T08:49:35.697Z,67.70
2017-07-29T08:52:03.462Z,67.60
2017-07-29T08:54:31.348Z,67.90
2017-07-29T08:56:59.116Z,67.90
2017-07-29T08:59:26.858Z,68.20
2017-07-29T09:01:54.540Z,68.40
2017-07-29T09:04:22.178Z,68.10
2017-07-29T09:06:50.051Z,68.10
2017-07-29T09:09:17.811Z,68.90
2017-07-29T09:11:45.479Z,68.90
2017-07-29T09:14:13.350Z,69.20
2017-07-29T09:19:15.633Z,69.20
2017-07-29T09:21:43.392Z,69.20
2017-07-29T09:24:11.022Z,68.70
2017-07-29T09:26:38.741Z,68.80
2017-07-29T09:29:06.398Z,68.60
2017-07-29T09:31:34.031Z,69.40
2017-07-29T09:34:01.807Z,68.90
2017-07-29T09:36:29.570Z,68.60
2017-07-29T09:38:57.266Z,68.10
2017-07-29T09:41:25.742Z,67.80
2017-07-29T09:43:53.475Z,68.50
2017-07-29T09:46:21.154Z,67.60
2017-07-29T09:48:49.004Z,67.50
2017-07-29T09:51:16.768Z,66.90
2017-07-29T09:53:44.531Z,66.40
2017-07-29T09:56:12.296Z,66.10
2017-07-29T09:58:39.923Z,66.00
2017-07-29T10:01:07.721Z,65.80
2017-07-29T10:03:35.590Z,65.30
2017-07-29T10:06:03.271Z,65.00
2017-07-29T10:08:31.018Z,64.70
2017-07-29T10:10:58.813Z,64.50
2017-07-29T10:13:26.475Z,64.40
2017-07-29T10:15:54.205Z,63.80
2017-07-29T10:18:22.084Z,64.00
2017-07-29T10:20:49.963Z,64.10
2017-07-29T10:23:17.822Z,63.80
2017-07-29T10:25:45.693Z,63.90
2017-07-29T10:28:13.553Z,63.60
2017-07-29T10:30:41.420Z,63.40
2017-07-29T10:33:09.296Z,63.30
2017-07-29T10:35:37.165Z,63.30
2017-07-29T10:38:06.559Z,63.30
2017-07-29T10:40:34.532Z,63.20
2017-07-29T10:43:02.400Z,63.20
2017-07-29T10:45:30.263Z,63.00
2017-07-29T10:47:58.124Z,63.10
2017-07-29T10:50:25.931Z,63.10
2017-07-29T10:52:53.757Z,62.90
2017-07-29T10:55:21.735Z,62.90
2017-07-29T10:57:49.592Z,62.90
2017-07-29T11:00:17.463Z,62.50
2017-07-29T11:02:45.437Z,62.40
2017-07-29T11:05:13.294Z,63.40
2017-07-29T11:07:41.157Z,63.30
2017-07-29T11:10:09.137Z,64.20
2017-07-29T11:12:36.998Z,63.90
2017-07-29T11:15:04.871Z,63.40
2017-07-29T11:17:32.835Z,63.30
2017-07-29T11:20:00.805Z,63.30
2017-07-29T11:22:28.667Z,63.30
2017-07-29T11:24:56.538Z,63.80
2017-07-29T11:27:24.321Z,63.70
2017-07-29T11:29:52.793Z,65.10
2017-07-29T11:32:20.453Z,65.10
2017-07-29T11:34:48.293Z,64.90
2017-07-29T11:37:15.961Z,65.50
2017-07-29T11:39:43.615Z,66.00
2017-07-29T11:42:11.485Z,66.60
2017-07-29T11:44:39.168Z,66.60
2017-07-29T11:47:06.909Z,67.30
2017-07-29T11:49:34.678Z,68.40
2017-07-29T11:52:02.438Z,68.90
2017-07-29T11:54:30.098Z,69.00
2017-07-29T11:56:57.968Z,69.10
2017-07-29T11:59:25.595Z,69.50
2017-07-29T12:01:53.312Z,68.60
2017-07-29T12:04:20.989Z,68.40
2017-07-29T12:06:49.431Z,68.70
2017-07-29T12:09:17.201Z,68.20
2017-07-29T12:11:45.065Z,67.40
2017-07-29T12:14:12.691Z,67.40
2017-07-29T12:16:40.490Z,67.40
2017-07-29T12:19:08.257Z,67.50
2017-07-29T12:21:36.020Z,67.60
2017-07-29T12:24:03.782Z,67.50
2017-07-29T12:26:31.457Z,67.10
2017-07-29T12:28:59.210Z,67.00
2017-07-29T12:31:26.839Z,66.70
2017-07-29T12:33:54.506Z,66.80
2017-07-29T12:36:22.298Z,66.60
2017-07-29T12:38:49.974Z,66.50
2017-07-29T12:41:17.739Z,65.80
2017-07-29T12:43:45.486Z,64.90
2017-07-29T12:46:13.207Z,64.20
2017-07-29T12:48:41.017Z,63.60
2017-07-29T12:51:08.777Z,63.40
2017-07-29T12:53:36.541Z,62.30
2017-07-29T12:56:04.223Z,62.10
2017-07-29T12:58:31.969Z,61.90
2017-07-29T13:00:59.628Z,60.80
2017-07-29T13:03:27.312Z,60.60
2017-07-29T13:05:55.057Z,60.00
2017-07-29T13:08:22.739Z,59.50
2017-07-29T13:10:50.586Z,59.40
2017-07-29T13:13:18.350Z,58.70
2017-07-29T13:15:46.116Z,58.40
2017-07-29T13:18:13.981Z,58.10
2017-07-29T13:20:41.664Z,57.80
2017-07-29T13:23:09.407Z,57.90
2017-07-29T13:25:37.173Z,58.10
2017-07-29T13:28:04.939Z,58.20
2017-07-29T13:30:32.630Z,58.00
2017-07-29T13:33:00.467Z,57.80
2017-07-29T13:35:28.142Z,57.80
2017-07-29T13:37:55.766Z,57.70
2017-07-29T13:40:23.467Z,57.70
2017-07-29T13:42:51.137Z,57.40
2017-07-29T13:45:18.797Z,57.00
2017-07-29T13:47:46.477Z,57.10
2017-07-29T13:50:15.016Z,56.80
2017-07-29T13:52:42.784Z,56.70
2017-07-29T13:55:10.653Z,56.90
2017-07-29T13:57:38.418Z,56.90
2017-07-29T14:00:06.281Z,56.80
2017-07-29T14:02:34.046Z,56.70
2017-07-29T14:05:01.734Z,56.80
2017-07-29T14:07:29.698Z,56.80
2017-07-29T14:09:57.651Z,56.60
2017-07-29T14:12:25.532Z,56.50
2017-07-29T14:14:53.401Z,56.60
2017-07-29T14:17:21.271Z,56.70
2017-07-29T14:19:49.127Z,56.80
2017-07-29T14:22:16.991Z,56.40
2017-07-29T14:24:44.863Z,56.60
2017-07-29T14:27:12.718Z,56.40
2017-07-29T14:29:40.480Z,56.40
2017-07-29T14:32:08.341Z,56.80
2017-07-29T14:34:36.228Z,57.90
2017-07-29T14:37:03.977Z,58.40
2017-07-29T14:39:31.839Z,58.70
2017-07-29T14:41:59.720Z,58.80
2017-07-29T14:44:27.587Z,58.80
2017-07-29T14:46:55.452Z,58.90
2017-07-29T14:49:23.327Z,58.80
2017-07-29T14:51:51.190Z,59.00
2017-07-29T14:54:19.371Z,59.00
2017-07-29T14:56:47.231Z,59.10
2017-07-29T14:59:15.107Z,59.40
2017-07-29T15:01:43.069Z,59.40
2017-07-29T15:04:10.935Z,59.70
2017-07-29T15:06:38.802Z,59.80
2017-07-29T15:09:06.671Z,60.40
2017-07-29T15:11:34.514Z,60.80
2017-07-29T15:14:02.387Z,61.40
2017-07-29T15:16:30.252Z,61.90
2017-07-29T15:18:57.985Z,62.20
2017-07-29T15:21:25.674Z,62.90
2017-07-29T15:23:53.561Z,63.30
2017-07-29T15:26:21.413Z,63.60
2017-07-29T15:28:49.295Z,63.90
2017-07-29T15:31:17.263Z,64.20
2017-07-29T15:33:45.126Z,64.60
2017-07-29T15:36:13.104Z,64.80
2017-07-29T15:38:40.963Z,65.50
2017-07-29T15:41:08.825Z,64.70
2017-07-29T15:43:36.699Z,65.00
2017-07-29T15:46:04.549Z,65.50
2017-07-29T15:48:32.366Z,65.30
2017-07-29T15:51:00.176Z,65.20
2017-07-29T15:53:28.011Z,65.00
2017-07-29T15:55:55.734Z,65.20
2017-07-29T15:58:23.574Z,64.80
2017-07-29T16:00:51.457Z,65.00
2017-07-29T16:03:19.326Z,64.70
2017-07-29T16:05:47.200Z,64.80
2017-07-29T16:08:15.057Z,64.70
2017-07-29T16:10:42.928Z,65.00
2017-07-29T16:13:10.770Z,64.40
2017-07-29T16:15:38.595Z,64.40
2017-07-29T16:18:06.409Z,64.60
2017-07-29T16:20:34.293Z,64.80
2017-07-29T16:23:02.136Z,65.00
2017-07-29T16:25:29.927Z,64.80
2017-07-29T16:27:57.777Z,64.70
2017-07-29T16:30:25.642Z,64.50
2017-07-29T16:32:53.418Z,64.20
2017-07-29T16:35:21.219Z,64.50
2017-07-29T16:37:49.044Z,64.20
2017-07-29T16:40:16.918Z,63.70
2017-07-29T16:42:44.656Z,63.80
2017-07-29T16:45:12.524Z,63.30
2017-07-29T16:47:40.290Z,63.30
2017-07-29T16:50:08.052Z,63.30
2017-07-29T16:52:35.814Z,63.10
2017-07-29T16:55:03.583Z,63.00
2017-07-29T16:57:31.568Z,63.00
2017-07-29T16:59:59.462Z,63.00
2017-07-29T17:02:28.116Z,63.00
2017-07-29T17:04:55.987Z,62.90
2017-07-29T17:07:23.963Z,62.60
2017-07-29T17:09:51.819Z,62.40
2017-07-29T17:12:19.570Z,62.40
2017-07-29T17:14:47.356Z,62.30
2017-07-29T17:17:15.917Z,61.90
2017-07-29T17:19:43.681Z,61.90
2017-07-29T17:22:11.369Z,62.00
2017-07-29T17:24:39.226Z,61.60
2017-07-29T17:27:06.973Z,61.70
2017-07-29T17:29:34.737Z,61.50
2017-07-29T17:32:02.739Z,61.40
2017-07-29T17:34:30.592Z,61.30
2017-07-29T17:36:58.359Z,61.40
2017-07-29T17:39:26.102Z,61.40
2017-07-29T17:41:53.807Z,61.50
2017-07-29T17:44:22.416Z,61.40
2017-07-29T17:46:51.033Z,61.60
2017-07-29T17:49:18.799Z,61.60
2017-07-29T17:51:46.663Z,61.40
2017-07-29T17:54:14.361Z,62.20
2017-07-29T17:56:42.910Z,62.90
2017-07-29T17:59:10.672Z,63.40
2017-07-29T18:01:38.362Z,63.60
2017-07-29T18:04:06.102Z,63.60
2017-07-29T18:06:33.897Z,63.40
2017-07-29T18:09:01.627Z,63.20
2017-07-29T18:11:29.306Z,63.10
2017-07-29T18:13:57.158Z,63.60
2017-07-29T18:16:24.920Z,63.50
2017-07-29T18:18:52.686Z,63.30
2017-07-29T18:21:20.506Z,63.10
2017-07-29T18:23:48.214Z,63.40
2017-07-29T18:26:15.978Z,63.50
2017-07-29T18:28:43.740Z,63.40
2017-07-29T18:31:11.424Z,63.30
2017-07-29T18:33:39.269Z,63.50
2017-07-29T18:36:06.930Z,63.60
2017-07-29T18:38:34.697Z,63.30
2017-07-29T18:41:02.563Z,63.30
2017-07-29T18:43:30.243Z,63.20
2017-07-29T18:45:57.989Z,63.40
2017-07-29T18:48:25.856Z,63.20
2017-07-29T18:50:53.545Z,63.30
2017-07-29T18:53:21.182Z,63.20
2017-07-29T18:55:48.945Z,63.30
2017-07-29T18:58:16.708Z,63.40
2017-07-29T19:00:44.394Z,63.30
2017-07-29T19:03:12.137Z,63.40
2017-07-29T19:05:40.002Z,63.60
2017-07-29T19:08:07.764Z,63.40
2017-07-29T19:10:35.529Z,63.30
2017-07-29T19:13:03.225Z,63.40
2017-07-29T19:15:31.707Z,63.20
2017-07-29T19:18:00.256Z,63.20
2017-07-29T19:20:28.123Z,63.00
2017-07-29T19:22:55.782Z,63.10
2017-07-29T19:25:23.445Z,63.00
2017-07-29T19:27:51.131Z,63.10
2017-07-29T19:30:18.871Z,63.20
2017-07-29T19:32:46.634Z,63.30
2017-07-29T19:35:14.324Z,63.40
2017-07-29T19:37:42.165Z,63.20
2017-07-29T19:40:09.928Z,63.50
2017-07-29T19:42:37.720Z,63.80
2017-07-29T19:45:05.390Z,63.80
2017-07-29T19:47:33.833Z,64.60
2017-07-29T19:50:01.703Z,63.60
2017-07-29T19:52:29.465Z,63.60
2017-07-29T19:54:57.101Z,63.80
2017-07-29T19:57:27.918Z,63.90
2017-07-29T19:59:55.731Z,64.00
2017-07-29T20:02:23.359Z,64.10
2017-07-29T20:04:51.155Z,63.90
2017-07-29T20:07:18.868Z,63.90
2017-07-29T20:09:46.600Z,64.00
2017-07-29T20:12:14.362Z,63.90
2017-07-29T20:14:42.111Z,64.10
2017-07-29T20:17:09.873Z,64.20
2017-07-29T20:19:37.560Z,64.60
2017-07-29T20:22:05.215Z,64.60
2017-07-29T20:24:32.882Z,64.80
2017-07-29T20:27:00.622Z,65.00
2017-07-29T20:29:28.387Z,65.00
2017-07-29T20:31:56.152Z,65.20
2017-07-29T20:34:24.017Z,65.40
2017-07-29T20:36:51.700Z,65.60
2017-07-29T20:39:19.447Z,65.80
2017-07-29T20:41:47.310Z,65.90
2017-07-29T20:44:15.075Z,65.70
2017-07-29T20:46:42.839Z,65.80
2017-07-29T20:49:10.604Z,65.50
2017-07-29T20:51:38.373Z,65.40
2017-07-29T20:54:06.023Z,65.40
2017-07-29T20:56:33.898Z,65.40
2017-07-29T20:59:01.762Z,65.30
2017-07-29T21:01:29.627Z,65.20
2017-07-29T21:03:57.494Z,65.20
2017-07-29T21:06:25.339Z,65.30
2017-07-29T21:08:53.228Z,65.40
2017-07-29T21:11:21.097Z,65.50
2017-07-29T21:13:51.109Z,65.50
2017-07-29T21:16:21.677Z,65.90
2017-07-29T21:18:52.123Z,66.10
2017-07-29T21:21:22.034Z,66.10
2017-07-29T21:23:51.996Z,66.10
2017-07-29T21:26:22.550Z,66.40
2017-07-29T21:28:50.826Z,66.50
2017-07-29T21:31:18.797Z,66.30
2017-07-29T21:33:46.860Z,66.30
2017-07-29T21:36:14.742Z,66.00
2017-07-29T21:38:42.693Z,66.80
2017-07-29T21:41:10.569Z,65.90
2017-07-29T21:43:38.415Z,65.70
2017-07-29T21:46:06.180Z,66.10
2017-07-29T21:48:33.948Z,66.20
2017-07-29T21:51:01.809Z,66.00
2017-07-29T21:53:29.496Z,65.80
2017-07-29T21:55:57.239Z,66.00
2017-07-29T21:58:25.002Z,65.80
2017-07-29T22:00:52.678Z,65.70
2017-07-29T22:03:20.427Z,66.00
2017-07-29T22:05:48.188Z,66.10
2017-07-29T22:08:15.957Z,65.90
2017-07-29T22:10:43.719Z,65.70
2017-07-29T22:13:11.585Z,65.80
2017-07-29T22:15:39.352Z,65.80
2017-07-29T22:18:07.114Z,66.10
2017-07-29T22:20:34.883Z,66.20
2017-07-29T22:23:02.645Z,66.00
2017-07-29T22:25:30.409Z,66.30
2017-07-29T22:27:58.170Z,66.30
2017-07-29T22:30:25.935Z,66.20
2017-07-29T22:32:53.619Z,65.90
2017-07-29T22:35:21.379Z,66.60
2017-07-29T22:37:49.126Z,66.20
2017-07-29T22:40:16.754Z,65.90
2017-07-29T22:42:44.554Z,66.00
2017-07-29T22:45:12.318Z,66.00
2017-07-29T22:47:40.081Z,66.10
2017-07-29T22:50:07.843Z,67.00
2017-07-29T22:52:35.608Z,66.20
2017-07-29T22:55:03.376Z,66.30
2017-07-29T22:57:31.042Z,66.10
2017-07-29T22:59:58.724Z,66.10
2017-07-29T23:02:26.567Z,66.10
2017-07-29T23:04:54.250Z,66.00
2017-07-29T23:07:21.991Z,66.20
2017-07-29T23:09:49.671Z,66.10
2017-07-29T23:12:17.339Z,66.10
2017-07-29T23:14:45.076Z,65.80
2017-07-29T23:17:12.737Z,66.20
2017-07-29T23:19:40.503Z,66.00
2017-07-29T23:22:08.189Z,66.00
2017-07-29T23:24:35.931Z,66.20
2017-07-29T23:27:03.797Z,65.90
2017-07-29T23:29:31.560Z,66.10
2017-07-29T23:31:59.325Z,66.10
2017-07-29T23:34:26.990Z,66.20
2017-07-29T23:36:54.752Z,66.20
2017-07-29T23:39:22.517Z,66.10
2017-07-29T23:41:50.382Z,66.10
2017-07-29T23:44:18.148Z,65.80
2017-07-29T23:46:45.779Z,66.30
2017-07-29T23:49:13.574Z,66.20
2017-07-29T23:51:41.266Z,66.00
2017-07-29T23:54:08.998Z,66.20
2017-07-29T23:56:36.866Z,66.30
2017-07-29T23:59:04.494Z,66.20
